createdAt,value
2022-08-23T00:02:34.499Z,3.42
2022-08-23T00:07:42.246Z,1.21
2022-08-23T00:12:45.472Z,2.63
2022-08-23T00:17:47.771Z,1.44
2022-08-23T00:22:49.898Z,-0.44
2022-08-23T00:27:52.072Z,-0.77
2022-08-23T00:32:57.006Z,-0.74
2022-08-23T00:38:32.903Z,-1.25
2022-08-23T00:43:54.730Z,-0.61
2022-08-23T00:48:57.936Z,1.46
2022-08-23T00:54:03.649Z,12.28
2022-08-23T00:59:07.177Z,19.54
2022-08-23T01:04:11.467Z,21.98
2022-08-23T01:09:17.896Z,25.03
2022-08-23T01:14:27.034Z,19.70
2022-08-23T01:19:33.338Z,25.49
2022-08-23T01:25:06.398Z,23.10
2022-08-23T01:29:58.716Z,19.13
2022-08-23T01:35:00.680Z,22.75
2022-08-23T01:40:03.033Z,27.80
2022-08-23T01:45:05.866Z,22.39
2022-08-23T01:50:10.386Z,21.73
2022-08-23T01:55:12.725Z,20.32
2022-08-23T02:00:15.218Z,23.37
2022-08-23T02:05:19.259Z,19.82
2022-08-23T02:10:23.084Z,19.43
2022-08-23T02:15:26.414Z,22.11
2022-08-23T02:20:28.801Z,24.98
2022-08-23T02:25:31.037Z,24.30
2022-08-23T02:30:33.725Z,28.19
2022-08-23T02:35:36.489Z,27.68
2022-08-23T02:40:39.891Z,29.69
2022-08-23T02:45:41.979Z,29.86
2022-08-23T02:50:44.043Z,25.86
2022-08-23T02:55:47.585Z,26.47
2022-08-23T03:00:50.562Z,25.78
2022-08-23T03:05:54.553Z,26.78
2022-08-23T03:10:58.541Z,23.98
2022-08-23T03:16:01.561Z,24.39
2022-08-23T03:21:04.862Z,24.64
2022-08-23T03:26:10.264Z,25.23
2022-08-23T03:31:14.140Z,21.32
2022-08-23T03:36:28.209Z,20.31
2022-08-23T03:41:32.251Z,19.89
2022-08-23T03:46:34.676Z,20.25
2022-08-23T03:51:38.189Z,17.38
2022-08-23T03:56:51.132Z,19.18
2022-08-23T04:01:53.791Z,22.02
2022-08-23T04:07:19.265Z,22.15
2022-08-23T04:12:22.893Z,22.33
2022-08-23T04:17:25.302Z,22.04
2022-08-23T04:22:28.047Z,22.16
2022-08-23T04:27:30.462Z,20.59
2022-08-23T04:32:32.718Z,19.66
2022-08-23T04:37:37.395Z,19.07
2022-08-23T04:42:40.820Z,18.17
2022-08-23T04:47:44.807Z,18.64
2022-08-23T04:52:46.945Z,19.05
2022-08-23T04:57:49.033Z,17.93
2022-08-23T05:02:55.548Z,15.80
2022-08-23T05:07:57.926Z,17.64
2022-08-23T05:12:59.938Z,16.38
2022-08-23T05:18:02.084Z,15.59
2022-08-23T05:23:05.416Z,15.66
2022-08-23T05:28:10.022Z,16.62
2022-08-23T05:33:13.667Z,15.90
2022-08-23T05:38:20.157Z,13.47
2022-08-23T05:43:23.756Z,9.96
2022-08-23T05:48:26.311Z,10.61
2022-08-23T05:53:33.114Z,9.56
2022-08-23T05:58:35.361Z,9.38
2022-08-23T06:03:37.754Z,7.14
2022-08-23T06:08:40.547Z,6.37
2022-08-23T06:13:43.900Z,2.71
2022-08-23T06:18:47.134Z,3.78
2022-08-23T06:24:22.337Z,1.31
2022-08-23T06:29:48.769Z,0.42
2022-08-23T06:35:27.834Z,-2.38
2022-08-23T06:40:32.199Z,-1.10
2022-08-23T06:45:58.226Z,0.81
2022-08-23T06:51:00.606Z,1.09
2022-08-23T06:56:26.796Z,-1.49
2022-08-23T07:01:55.353Z,-0.45
2022-08-23T07:07:19.316Z,-4.69
2022-08-23T07:12:22.280Z,-4.64
2022-08-23T07:17:25.284Z,116.58
2022-08-23T07:22:27.856Z,116.20
2022-08-23T07:27:29.997Z,115.89
2022-08-23T07:32:36.632Z,114.42
2022-08-23T07:37:50.906Z,112.50
2022-08-23T07:42:53.793Z,116.20
2022-08-23T07:47:56.216Z,115.30
2022-08-23T07:53:03.052Z,113.50
2022-08-23T07:58:05.697Z,113.68
2022-08-23T08:03:17.279Z,112.57
2022-08-23T08:08:41.165Z,110.34
2022-08-23T08:13:45.224Z,113.88
2022-08-23T08:18:47.478Z,-5.11
2022-08-23T08:24:12.746Z,-1.47
2022-08-23T08:29:28.251Z,-1.90
2022-08-23T08:34:30.286Z,-0.48
2022-08-23T08:39:33.734Z,112.87
2022-08-23T08:44:46.120Z,111.51
2022-08-23T08:49:58.222Z,110.78
2022-08-23T08:55:15.293Z,109.68
2022-08-23T09:00:23.592Z,107.83
2022-08-23T09:05:36.889Z,112.30
2022-08-23T09:11:14.120Z,114.71
2022-08-23T09:16:43.490Z,116.63
2022-08-23T09:21:47.490Z,117.06
2022-08-23T09:26:49.785Z,115.80
2022-08-23T09:31:55.822Z,111.57
2022-08-23T09:37:16.878Z,107.42
2022-08-23T09:42:40.238Z,104.81
2022-08-23T09:47:47.708Z,102.56
2022-08-23T09:53:04.338Z,103.34
2022-08-23T09:58:19.489Z,98.40
2022-08-23T10:03:25.420Z,98.52
2022-08-23T10:08:36.619Z,97.44
2022-08-23T10:13:43.121Z,97.30
2022-08-23T10:19:07.494Z,96.18
2022-08-23T10:24:40.400Z,96.30
2022-08-23T10:29:48.571Z,96.88
2022-08-23T10:35:32.596Z,95.76
2022-08-23T10:40:44.455Z,94.62
2022-08-23T10:45:47.270Z,93.07
2022-08-23T10:51:14.105Z,93.40
2022-08-23T10:56:20.908Z,92.09
2022-08-23T11:01:53.597Z,93.04
2022-08-23T11:06:58.785Z,89.66
2022-08-23T11:12:21.417Z,89.33
2022-08-23T11:17:29.123Z,86.84
2022-08-23T11:22:52.841Z,87.88
2022-08-23T11:28:24.075Z,86.13
2022-08-23T11:33:49.084Z,88.00
2022-08-23T11:38:51.117Z,86.19
2022-08-23T11:43:57.014Z,85.35
2022-08-23T11:49:17.169Z,79.84
2022-08-23T11:54:39.330Z,80.27
2022-08-23T11:59:58.248Z,78.72
2022-08-23T12:05:06.942Z,78.93
2022-08-23T12:10:10.305Z,79.67
2022-08-23T12:15:13.428Z,79.57
2022-08-23T12:20:28.810Z,78.08
2022-08-23T12:25:32.113Z,77.73
2022-08-23T12:31:23.925Z,77.58
2022-08-23T12:36:39.210Z,76.63
2022-08-23T12:41:54.009Z,76.19
2022-08-23T12:46:56.462Z,76.73
2022-08-23T12:52:01.881Z,74.71
2022-08-23T12:57:11.660Z,75.40
2022-08-23T13:02:40.579Z,75.70
2022-08-23T13:07:42.989Z,74.50
2022-08-23T13:12:44.833Z,78.00
2022-08-23T13:17:47.065Z,75.94
2022-08-23T13:23:18.105Z,73.79
2022-08-23T13:28:31.216Z,74.19
2022-08-23T13:33:33.362Z,75.21
2022-08-23T13:38:35.474Z,74.67
2022-08-23T13:43:43.341Z,73.33
2022-08-23T13:48:49.524Z,72.90
2022-08-23T13:53:52.489Z,72.99
2022-08-23T13:58:57.298Z,73.10
2022-08-23T14:03:59.293Z,72.25
2022-08-23T14:09:01.378Z,72.42
2022-08-23T14:14:04.153Z,72.42
2022-08-23T14:19:18.009Z,72.34
2022-08-23T14:24:30.796Z,72.06
2022-08-23T14:29:32.802Z,73.07
2022-08-23T14:34:34.795Z,71.93
2022-08-23T14:39:36.826Z,73.51
2022-08-23T14:44:38.945Z,72.78
2022-08-23T14:49:41.348Z,71.04
2022-08-23T14:54:43.622Z,70.51
2022-08-23T14:59:45.485Z,71.32
2022-08-23T15:04:47.999Z,72.06
2022-08-23T15:09:51.721Z,72.32
2022-08-23T15:14:56.860Z,72.84
2022-08-23T15:19:59.437Z,74.14
2022-08-23T15:25:01.447Z,74.83
2022-08-23T15:30:04.432Z,76.09
2022-08-23T15:35:07.188Z,75.81
2022-08-23T15:40:11.184Z,76.30
2022-08-23T15:45:13.233Z,76.96
2022-08-23T15:50:17.589Z,77.22
2022-08-23T15:55:20.485Z,77.34
2022-08-23T16:00:23.164Z,76.73
2022-08-23T16:05:25.258Z,79.00
2022-08-23T16:10:28.195Z,79.28
2022-08-23T16:15:30.534Z,78.47
2022-08-23T16:20:32.506Z,78.65
2022-08-23T16:25:35.028Z,78.48
2022-08-23T16:30:37.274Z,79.22
2022-08-23T16:35:39.342Z,79.92
2022-08-23T16:40:41.337Z,80.14
2022-08-23T16:45:43.605Z,84.25
2022-08-23T16:50:47.001Z,86.63
2022-08-23T16:55:49.013Z,89.02
2022-08-23T17:00:50.996Z,91.53
2022-08-23T17:05:53.038Z,92.06
2022-08-23T17:10:55.028Z,92.92
2022-08-23T17:15:57.125Z,94.31
2022-08-23T17:20:59.265Z,93.87
2022-08-23T17:26:01.505Z,94.19
2022-08-23T17:31:03.620Z,95.60
2022-08-23T17:36:07.363Z,96.03
2022-08-23T17:41:09.437Z,98.48
2022-08-23T17:46:11.433Z,97.81
2022-08-23T17:51:13.617Z,98.25
2022-08-23T17:56:15.560Z,99.72
2022-08-23T18:01:17.999Z,100.86
2022-08-23T18:06:20.123Z,100.74
2022-08-23T18:11:22.888Z,101.71
2022-08-23T18:16:34.446Z,101.33
2022-08-23T18:21:38.988Z,102.22
2022-08-23T18:27:00.306Z,103.25
2022-08-23T18:32:04.213Z,104.14
2022-08-23T18:37:07.461Z,104.10
2022-08-23T18:42:10.617Z,104.52
2022-08-23T18:47:13.671Z,105.21
2022-08-23T18:52:15.727Z,105.80
2022-08-23T18:57:17.702Z,106.78
2022-08-23T19:02:20.300Z,107.33
2022-08-23T19:07:23.147Z,106.62
2022-08-23T19:12:25.310Z,108.56
2022-08-23T19:17:27.790Z,108.62
2022-08-23T19:22:30.060Z,110.88
2022-08-23T19:27:34.279Z,111.93
2022-08-23T19:32:39.454Z,112.36
2022-08-23T19:37:43.791Z,114.35
2022-08-23T19:42:46.204Z,115.09
2022-08-23T19:47:48.526Z,114.66
2022-08-23T19:52:50.835Z,115.95
2022-08-23T19:57:56.592Z,115.66
2022-08-23T20:02:58.777Z,114.83
2022-08-23T20:08:01.392Z,114.90
2022-08-23T20:13:04.042Z,115.56
2022-08-23T20:18:06.646Z,114.91
2022-08-23T20:23:27.120Z,117.20
2022-08-23T20:28:29.515Z,115.96
2022-08-23T20:33:32.832Z,117.79
2022-08-23T20:38:36.318Z,118.75
2022-08-23T20:43:41.027Z,-5.43
2022-08-23T20:48:43.177Z,-5.61
2022-08-23T20:53:45.508Z,-5.62
2022-08-23T20:58:47.660Z,-5.63
2022-08-23T21:03:50.036Z,-5.95
2022-08-23T21:08:53.960Z,-4.73
2022-08-23T21:13:56.990Z,-4.10
2022-08-23T21:18:59.257Z,-4.41
2022-08-23T21:24:03.350Z,-3.01
2022-08-23T21:29:07.601Z,-2.25
2022-08-23T21:34:09.852Z,-1.52
2022-08-23T21:39:11.897Z,0.00
2022-08-23T21:44:18.875Z,-1.77
2022-08-23T21:49:21.088Z,-2.53
2022-08-23T21:54:26.194Z,-2.58
2022-08-23T21:59:28.460Z,-0.92
2022-08-23T22:04:30.546Z,-0.96
2022-08-23T22:09:33.499Z,-0.32
2022-08-23T22:14:35.958Z,-1.98
2022-08-23T22:19:37.972Z,0.14
2022-08-23T22:24:41.821Z,0.01
2022-08-23T22:29:46.494Z,-1.19
2022-08-23T22:34:49.139Z,-1.38
2022-08-23T22:39:51.406Z,-0.40
2022-08-23T22:44:55.856Z,-0.19
2022-08-23T22:49:58.088Z,3.36
2022-08-23T22:55:00.100Z,4.18
2022-08-23T23:00:02.993Z,1.29
2022-08-23T23:05:06.020Z,1.68
2022-08-23T23:10:08.577Z,3.06
2022-08-23T23:15:10.981Z,4.48
2022-08-23T23:20:31.581Z,4.12
2022-08-23T23:25:34.557Z,4.31
2022-08-23T23:30:37.157Z,2.95
2022-08-23T23:35:39.792Z,2.77
2022-08-23T23:40:42.259Z,2.99
2022-08-23T23:45:44.569Z,2.67
2022-08-23T23:50:46.793Z,4.88
2022-08-23T23:55:49.161Z,1.83
